Terminal Aerodrome Forecast
Issued by NWS

Home | Current Version | Previous Version | Text Only | Print | Product List | Glossary On
Versions: 1 2 3 4 5 6 7 8 9 10 11 12 13 14 15 16 17 18 19 20 21 22 23 24
000
FTUS43 KMKX 301147
TAFENW
TAF
KENW 301147Z 3012/0112 04010G17KT P6SM VCSH SCT010 OVC015
      TEMPO 3012/3016 -SHRA
     FM301600 04012G18KT 5SM BR VCSH BKN008 OVC010
     FM302000 05012G20KT 3SM BR VCSH OVC010
     FM302300 05010KT 3SM -SHRA BR BKN008 OVC010=

USA.gov is the U.S. government's official web portal to all federal, state and local government web resources and services.